Terminal Aerodrome Forecast
Issued by NWS

Home | Current Version | Previous Version | Graphics & Text | Print | Product List | Glossary On
Versions: 1 2 3 4 5 6 7 8 9 10 11 12 13 14 15 16 17 18 19 20
000
FTUS43 KICT 031126
TAFHUT
TAF
KHUT 031126Z 0312/0412 21019G27KT P6SM OVC015
     FM031330 23017G25KT P6SM SCT020 BKN250
     FM031800 36017G25KT P6SM SCT030 OVC250
     FM040900 02018G27KT P6SM BKN035=

USA.gov is the U.S. government's official web portal to all federal, state and local government web resources and services.